Time;durP1;ratioP1;P1;durP2;ratioP2;P2;SDS_P1;SDS_P2;PMS_P1;PMS_P2;Temp;Humidity;BMP_temperature;BMP_pressure;BME280_temperature;BME280_humidity;BME280_pressure;Samples;Min_cycle;Max_cycle;Signal;HPM_P1;HPM_P2
2021/10/29 00:02:14;;;;;;;15.80;8.80;;;;;;;9.88;71.39;100237.63;4934662;29;20042;-53
2021/10/29 00:04:40;;;;;;;11.63;8.65;;;;;;;9.88;72.01;100237.63;4952456;29;20546;-55
2021/10/29 00:07:07;;;;;;;13.98;8.80;;;;;;;9.86;71.35;100224.69;4949084;29;20039;-57
2021/10/29 00:09:33;;;;;;;14.82;9.55;;;;;;;9.84;71.84;100238.59;4952289;29;20061;-52
2021/10/29 00:11:59;;;;;;;16.55;9.85;;;;;;;9.87;71.78;100241.13;4952237;29;20043;-55
2021/10/29 00:14:25;;;;;;;15.20;9.75;;;;;;;9.88;71.96;100250.63;4934448;29;20058;-55
2021/10/29 00:16:52;;;;;;;14.10;9.13;;;;;;;9.84;71.39;100244.63;4952444;29;20039;-54
2021/10/29 00:19:18;;;;;;;13.38;9.52;;;;;;;9.84;71.44;100249.81;4952296;29;20138;-53
2021/10/29 00:21:44;;;;;;;15.98;8.70;;;;;;;9.78;71.83;100232.66;4951521;29;20379;-52
2021/10/29 00:24:10;;;;;;;13.73;8.73;;;;;;;9.88;71.52;100243.69;4951088;29;20046;-54
2021/10/29 00:26:36;;;;;;;14.40;9.23;;;;;;;9.82;71.36;100228.25;4951873;29;20053;-52
2021/10/29 00:29:02;;;;;;;16.02;9.98;;;;;;;9.79;71.20;100223.94;4952160;29;20121;-52
2021/10/29 00:31:28;;;;;;;18.23;10.38;;;;;;;9.81;71.31;100241.25;4951393;29;20410;-53
2021/10/29 00:33:55;;;;;;;15.30;9.63;;;;;;;9.81;71.34;100251.63;4934903;29;20071;-54
2021/10/29 00:36:20;;;;;;;12.20;8.60;;;;;;;9.82;71.33;100254.22;4934764;29;20039;-50
2021/10/29 00:38:46;;;;;;;13.90;7.95;;;;;;;9.87;71.81;100254.09;4934894;29;20061;-53
2021/10/29 00:41:12;;;;;;;12.55;8.00;;;;;;;9.83;71.60;100252.47;4951232;29;20047;-54
2021/10/29 00:43:38;;;;;;;14.50;8.38;;;;;;;9.63;71.16;100224.34;4951309;29;20070;-55
2021/10/29 00:46:04;;;;;;;16.08;8.43;;;;;;;9.78;71.32;100257.78;4951544;29;20527;-51
2021/10/29 00:48:30;;;;;;;12.88;6.80;;;;;;;9.60;71.15;100248.63;4951947;29;20125;-55
2021/10/29 00:50:56;;;;;;;11.85;6.22;;;;;;;9.65;71.21;100264.94;4951365;29;20043;-54
2021/10/29 00:53:23;;;;;;;12.88;6.03;;;;;;;9.60;71.09;100276.31;4950154;29;20043;-55
2021/10/29 00:55:49;;;;;;;12.20;6.53;;;;;;;9.55;71.21;100268.63;4933352;29;20427;-52
2021/10/29 00:58:15;;;;;;;11.48;6.45;;;;;;;9.47;71.23;100251.53;4933844;29;20515;-54
2021/10/29 01:00:41;;;;;;;13.00;6.65;;;;;;;9.55;70.88;100258.25;4951319;29;20101;-55
2021/10/29 01:03:07;;;;;;;9.82;5.53;;;;;;;9.45;70.74;100248.09;4951348;29;20503;-54
2021/10/29 01:05:33;;;;;;;11.05;5.30;;;;;;;9.40;70.94;100270.69;4934051;29;20089;-54
2021/10/29 01:07:59;;;;;;;10.48;5.72;;;;;;;9.30;71.07;100273.47;4933980;29;20051;-54
2021/10/29 01:10:32;;;;;;;9.50;5.20;;;;;;;9.18;71.43;100259.88;4951648;29;20039;-54
2021/10/29 01:12:58;;;;;;;12.27;5.45;;;;;;;9.16;71.53;100272.03;4948495;29;20082;-55
2021/10/29 01:15:25;;;;;;;9.65;4.90;;;;;;;9.18;71.82;100270.25;4951178;29;20066;-55
2021/10/29 01:17:51;;;;;;;8.30;4.30;;;;;;;9.16;71.12;100272.88;4951408;29;20131;-54
2021/10/29 01:20:23;;;;;;;6.32;3.45;;;;;;;9.13;71.22;100262.56;4950683;29;20175;-55
2021/10/29 01:22:49;;;;;;;8.07;3.67;;;;;;;9.10;70.68;100246.22;4950816;29;20047;-54
2021/10/29 01:25:15;;;;;;;10.68;3.83;;;;;;;8.97;70.94;100234.34;4951408;29;20078;-54
2021/10/29 01:27:41;;;;;;;5.55;3.45;;;;;;;9.00;70.83;100242.94;4950721;29;20427;-55
2021/10/29 01:30:09;;;;;;;7.95;3.75;;;;;;;8.93;70.53;100247.38;4918544;29;20039;-52
2021/10/29 01:32:35;;;;;;;7.50;3.75;;;;;;;8.95;70.92;100233.53;4933414;29;20142;-53
2021/10/29 01:35:01;;;;;;;7.78;3.78;;;;;;;9.11;70.33;100245.31;4934004;29;20431;-55
2021/10/29 01:37:28;;;;;;;7.25;3.97;;;;;;;9.11;70.33;100240.97;4933995;29;20043;-52
2021/10/29 01:39:54;;;;;;;7.68;4.28;;;;;;;9.08;70.13;100246.22;4951555;29;20057;-56
2021/10/29 01:42:20;;;;;;;7.28;4.05;;;;;;;8.87;70.71;100242.31;4949801;29;20066;-56
2021/10/29 01:44:46;;;;;;;5.75;3.75;;;;;;;8.98;70.69;100273.22;4948054;29;20129;-56
2021/10/29 01:47:13;;;;;;;8.02;3.88;;;;;;;8.99;70.75;100263.72;4949596;29;20055;-52
2021/10/29 01:49:40;;;;;;;10.75;4.20;;;;;;;9.05;71.26;100273.97;4950924;29;20071;-51
2021/10/29 01:52:09;;;;;;;12.55;4.80;;;;;;;8.99;71.29;100268.91;4949459;29;20067;-52
2021/10/29 01:54:35;;;;;;;9.52;4.35;;;;;;;8.97;72.30;100263.72;4933023;29;20093;-52
2021/10/29 01:57:01;;;;;;;9.68;5.57;;;;;;;8.83;72.44;100273.50;4950998;29;20043;-55
2021/10/29 01:59:30;;;;;;;9.45;4.28;;;;;;;8.75;73.64;100263.25;4951187;29;20062;-52
2021/10/29 02:01:56;;;;;;;8.20;4.75;;;;;;;8.66;73.99;100250.47;4933840;29;20049;-51
2021/10/29 02:04:22;;;;;;;10.40;5.03;;;;;;;8.63;73.95;100247.09;4950335;29;20129;-51
2021/10/29 02:06:48;;;;;;;10.13;4.47;;;;;;;8.53;74.27;100248.94;4951101;29;20122;-53
2021/10/29 02:09:14;;;;;;;11.20;4.82;;;;;;;8.30;74.56;100233.81;4950710;29;20534;-55
2021/10/29 02:11:41;;;;;;;9.13;4.20;;;;;;;8.27;75.03;100241.56;4946501;29;20464;-53
2021/10/29 02:14:07;;;;;;;7.60;3.85;;;;;;;8.14;74.89;100223.69;4950086;29;20407;-52
2021/10/29 02:16:34;;;;;;;7.85;4.20;;;;;;;8.18;75.09;100233.09;4951048;28;20091;-55
2021/10/29 02:19:00;;;;;;;8.88;4.43;;;;;;;8.11;75.58;100232.38;4953867;29;20475;-54
2021/10/29 02:21:28;;;;;;;11.00;5.10;;;;;;;8.00;75.87;100240.31;4954718;29;20438;-53
2021/10/29 02:23:54;;;;;;;9.30;4.72;;;;;;;7.91;76.30;100232.66;4953796;29;20038;-52
2021/10/29 02:26:20;;;;;;;10.13;4.50;;;;;;;7.78;77.23;100220.78;4952902;29;20519;-53
2021/10/29 02:28:46;;;;;;;7.85;4.45;;;;;;;7.79;76.95;100235.44;4954534;29;20066;-53
2021/10/29 02:31:12;;;;;;;9.23;4.30;;;;;;;7.69;77.66;100239.03;4953708;29;20047;-54
2021/10/29 02:33:38;;;;;;;8.00;4.28;;;;;;;7.57;78.47;100250.41;4954046;29;20047;-52
2021/10/29 02:36:04;;;;;;;8.63;4.43;;;;;;;7.52;78.87;100248.75;4936521;29;20039;-57
2021/10/29 02:38:30;;;;;;;9.10;4.20;;;;;;;7.49;79.05;100265.13;4936784;29;20047;-51
2021/10/29 02:40:56;;;;;;;9.93;4.55;;;;;;;7.44;79.31;100259.16;4952637;29;20056;-53
2021/10/29 02:43:22;;;;;;;8.10;4.38;;;;;;;7.43;79.54;100264.38;4952878;29;20138;-54
2021/10/29 02:45:48;;;;;;;12.32;4.63;;;;;;;7.41;79.66;100266.13;4953439;29;20043;-56
2021/10/29 02:48:13;;;;;;;9.75;5.25;;;;;;;7.32;80.03;100249.00;4936420;29;20050;-55
2021/10/29 02:50:39;;;;;;;9.40;4.55;;;;;;;7.44;79.81;100269.53;4953659;29;20051;-55
2021/10/29 02:53:08;;;;;;;8.93;4.85;;;;;;;7.43;79.83;100277.31;4954051;29;20097;-53
2021/10/29 02:55:34;;;;;;;8.80;4.68;;;;;;;7.44;80.05;100281.59;4934193;29;20050;-54
2021/10/29 02:58:00;;;;;;;12.18;4.63;;;;;;;7.46;80.09;100279.84;4936365;29;20035;-54
2021/10/29 03:00:26;;;;;;;10.50;4.80;;;;;;;7.47;79.94;100289.34;4952616;29;20047;-54
2021/10/29 03:02:52;;;;;;;8.40;4.82;;;;;;;7.42;80.10;100285.94;4953038;29;20050;-51
2021/10/29 03:05:18;;;;;;;8.32;4.30;;;;;;;7.33;80.77;100279.13;4951062;29;20923;-52
2021/10/29 03:07:44;;;;;;;9.50;4.20;;;;;;;7.37;80.53;100295.50;4936128;29;20035;-56
2021/10/29 03:10:11;;;;;;;9.25;4.68;;;;;;;7.39;80.06;100288.56;4934777;29;20423;-56
2021/10/29 03:12:38;;;;;;;11.18;5.22;;;;;;;7.43;80.46;100293.66;4951815;29;20114;-53
2021/10/29 03:15:05;;;;;;;8.60;4.55;;;;;;;7.44;80.15;100276.41;4935928;29;20043;-54
2021/10/29 03:17:31;;;;;;;11.20;5.40;;;;;;;7.43;79.88;100275.56;4935052;29;20046;-56
2021/10/29 03:19:57;;;;;;;14.20;5.97;;;;;;;7.42;79.58;100273.00;4935946;29;20579;-56
2021/10/29 03:22:24;;;;;;;12.30;4.93;;;;;;;7.43;79.16;100279.91;4952247;29;20161;-55
2021/10/29 03:24:49;;;;;;;9.43;5.03;;;;;;;7.31;78.93;100261.94;4919521;29;20121;-51
2021/10/29 03:27:18;;;;;;;9.80;4.93;;;;;;;7.46;78.69;100282.44;4935411;29;20313;-53
2021/10/29 03:29:44;;;;;;;15.35;5.80;;;;;;;7.44;78.26;100268.66;4918090;29;20724;-54
2021/10/29 03:32:11;;;;;;;12.70;5.68;;;;;;;7.57;78.07;100278.84;4951481;29;20066;-52
2021/10/29 03:34:37;;;;;;;11.95;5.82;;;;;;;7.54;77.31;100273.69;4935233;29;20062;-51
2021/10/29 03:37:06;;;;;;;14.65;7.00;;;;;;;7.46;76.47;100259.16;4952261;29;20509;-56
2021/10/29 03:39:41;;;;;;;;;;;;;;;7.57;76.05;100283.19;4952831;29;20065;-54
2021/10/29 03:42:20;;;;;;;14.40;6.85;;;;;;;7.52;75.90;100272.03;4952029;29;20421;-53
2021/10/29 03:45:07;;;;;;;15.88;6.70;;;;;;;7.58;75.51;100284.88;4952356;29;20067;-52
2021/10/29 03:47:40;;;;;;;14.77;6.43;;;;;;;7.56;75.32;100273.69;4951777;29;20050;-53
2021/10/29 03:50:44;;;;;;;19.92;7.82;;;;;;;7.58;74.69;100283.16;4951742;29;20039;-52
2021/10/29 03:53:07;;;;;;;15.93;7.25;;;;;;;7.50;74.70;100284.97;4950087;29;20058;-53
2021/10/29 03:55:36;;;;;;;16.30;7.35;;;;;;;7.57;74.16;100299.56;4934297;29;20047;-55
2021/10/29 03:58:02;;;;;;;16.08;7.03;;;;;;;7.62;73.94;100292.59;4952440;29;20154;-51
2021/10/29 04:00:31;;;;;;;15.70;7.05;;;;;;;7.64;73.47;100301.16;4951225;29;20577;-52
2021/10/29 04:03:02;;;;;;;18.23;7.45;;;;;;;7.66;73.77;100306.34;4935035;29;20038;-53
2021/10/29 04:05:32;;;;;;;17.10;7.65;;;;;;;7.62;73.21;100292.59;4934442;29;20423;-55
2021/10/29 04:07:59;;;;;;;19.63;8.05;;;;;;;7.68;73.42;100290.81;4951837;29;20134;-55
2021/10/29 04:10:27;;;;;;;18.20;8.07;;;;;;;7.70;73.48;100294.19;4951792;29;20047;-52
2021/10/29 04:12:54;;;;;;;18.63;8.32;;;;;;;7.72;72.94;100277.78;4951362;29;20043;-55
2021/10/29 04:15:20;;;;;;;15.27;8.38;;;;;;;7.72;72.71;100282.13;4951385;29;20039;-56
2021/10/29 04:17:46;;;;;;;13.73;6.25;;;;;;;7.68;72.41;100286.47;4934918;29;20522;-52
2021/10/29 04:20:12;;;;;;;20.90;7.95;;;;;;;7.59;72.13;100281.41;4951380;29;20043;-51
2021/10/29 04:22:38;;;;;;;15.60;7.47;;;;;;;7.58;71.74;100290.06;4949516;29;20058;-51
2021/10/29 04:25:04;;;;;;;14.13;7.45;;;;;;;7.56;72.29;100295.25;4949034;28;20047;-54
2021/10/29 04:27:33;;;;;;;13.05;6.53;;;;;;;7.46;72.04;100285.88;4950268;29;20045;-52
2021/10/29 04:30:00;;;;;;;15.18;7.80;;;;;;;7.41;72.21;100273.88;4950119;29;20066;-51
2021/10/29 04:32:26;;;;;;;12.25;6.72;;;;;;;7.52;72.27;100296.16;4950444;29;20072;-51
2021/10/29 04:34:53;;;;;;;18.23;8.25;;;;;;;7.54;72.12;100303.88;4933570;29;20047;-50
2021/10/29 04:37:19;;;;;;;15.35;7.20;;;;;;;7.59;72.24;100296.94;4950526;29;20050;-54
2021/10/29 04:39:46;;;;;;;16.67;7.40;;;;;;;7.58;72.04;100288.34;4951787;28;20046;-53
2021/10/29 04:42:13;;;;;;;13.75;7.00;;;;;;;7.59;71.48;100274.50;4949995;29;20101;-56
2021/10/29 04:44:39;;;;;;;17.70;8.15;;;;;;;7.78;71.47;100307.91;4951642;29;20510;-54
2021/10/29 04:47:05;;;;;;;14.60;6.55;;;;;;;7.81;70.86;100318.22;4951762;29;20046;-53
2021/10/29 04:49:30;;;;;;;13.85;7.10;;;;;;;7.82;71.36;100305.25;4951644;29;20070;-51
2021/10/29 04:51:58;;;;;;;10.82;5.95;;;;;;;7.82;71.00;100312.16;4951787;29;20050;-49
2021/10/29 04:54:24;;;;;;;18.75;7.47;;;;;;;7.83;70.62;100299.22;4951095;29;20081;-51
2021/10/29 04:56:51;;;;;;;14.65;7.35;;;;;;;7.88;70.49;100302.59;4952003;29;20035;-53
2021/10/29 04:59:18;;;;;;;10.45;5.75;;;;;;;7.92;70.25;100313.75;4933986;29;20039;-59
2021/10/29 05:01:46;;;;;;;17.00;7.63;;;;;;;7.99;70.20;100311.09;4934028;29;20043;-55
2021/10/29 05:04:13;;;;;;;14.55;7.25;;;;;;;7.98;69.77;100313.69;4930642;29;20142;-53
2021/10/29 05:06:39;;;;;;;9.07;4.53;;;;;;;7.98;69.11;100300.75;4931752;29;20086;-53
2021/10/29 05:09:05;;;;;;;13.00;7.10;;;;;;;8.01;69.47;100308.44;4949345;29;20042;-53
2021/10/29 05:11:30;;;;;;;11.35;6.43;;;;;;;8.02;69.10;100305.00;4950397;29;20051;-54
2021/10/29 05:13:56;;;;;;;14.60;7.70;;;;;;;8.04;68.98;100300.66;4949567;29;20039;-54
2021/10/29 05:16:23;;;;;;;9.43;5.25;;;;;;;8.06;68.48;100289.38;4949525;29;20043;-55
2021/10/29 05:18:49;;;;;;;9.52;5.22;;;;;;;8.05;68.18;100286.84;4949378;29;20043;-53
2021/10/29 05:21:15;;;;;;;11.73;6.85;;;;;;;8.05;68.78;100297.19;4950773;29;20134;-53
2021/10/29 05:23:41;;;;;;;10.57;5.80;;;;;;;8.04;68.71;100308.41;4948424;29;20043;-53
2021/10/29 05:26:07;;;;;;;16.52;7.32;;;;;;;7.99;68.47;100294.69;4949164;29;20047;-51
2021/10/29 05:28:33;;;;;;;9.90;5.05;;;;;;;7.91;68.51;100299.97;4949085;29;20066;-52
2021/10/29 05:30:59;;;;;;;10.18;4.30;;;;;;;7.97;68.99;100328.34;4947929;29;20043;-54
2021/10/29 05:33:25;;;;;;;13.55;6.93;;;;;;;8.04;69.13;100318.78;4949664;29;20074;-55
2021/10/29 05:35:51;;;;;;;14.23;7.03;;;;;;;8.07;68.95;100314.41;4949551;29;20051;-53
2021/10/29 05:38:17;;;;;;;13.23;7.25;;;;;;;8.17;68.54;100327.22;4950630;29;20075;-53
2021/10/29 05:40:43;;;;;;;19.95;9.02;;;;;;;8.26;68.75;100325.38;4950145;29;20046;-52
2021/10/29 05:43:08;;;;;;;14.52;6.00;;;;;;;8.19;68.84;100330.66;4933234;29;20058;-55
2021/10/29 05:45:34;;;;;;;10.25;4.40;;;;;;;8.12;69.42;100340.22;4951018;29;20043;-51
2021/10/29 05:48:04;;;;;;;10.75;6.38;;;;;;;8.14;69.67;100329.88;4946357;28;20043;-53
2021/10/29 05:50:30;;;;;;;8.80;4.32;;;;;;;8.10;70.02;100326.47;4946751;29;20072;-57
2021/10/29 05:52:57;;;;;;;12.50;4.60;;;;;;;8.04;70.32;100322.22;4899704;29;20095;-54
2021/10/29 05:55:23;;;;;;;9.60;5.00;;;;;;;8.08;70.49;100341.16;4951075;29;20771;-52
2021/10/29 05:57:53;;;;;;;8.23;4.43;;;;;;;8.05;70.65;100328.28;4930422;29;20043;-52
2021/10/29 06:00:26;;;;;;;10.57;4.35;;;;;;;8.18;70.10;100334.97;4935796;29;20051;-50
2021/10/29 06:02:53;;;;;;;8.75;4.00;;;;;;;8.19;70.35;100335.84;4953200;29;20546;-54
2021/10/29 06:05:19;;;;;;;9.57;4.80;;;;;;;8.27;70.16;100334.84;4951721;29;20237;-53
2021/10/29 06:07:46;;;;;;;9.85;5.60;;;;;;;8.26;70.34;100340.91;4945346;29;20133;-53
2021/10/29 06:10:16;;;;;;;9.82;6.25;;;;;;;8.26;69.94;100327.09;4953206;29;20102;-56
2021/10/29 06:12:43;;;;;;;8.43;3.97;;;;;;;8.35;69.55;100329.59;4953051;29;20422;-55
2021/10/29 06:15:10;;;;;;;8.45;4.20;;;;;;;8.40;69.32;100326.06;4950950;29;20541;-53
2021/10/29 06:17:38;;;;;;;7.10;3.58;;;;;;;8.45;69.68;100315.63;4953102;29;20039;-54
2021/10/29 06:20:05;;;;;;;6.75;3.92;;;;;;;8.51;69.21;100325.88;4933358;29;20066;-55
2021/10/29 06:22:37;;;;;;;8.63;2.97;;;;;;;8.56;68.59;100331.00;4935779;29;20516;-59
2021/10/29 06:25:48;;;;;;;4.18;2.60;;;;;;;8.58;68.36;100321.47;4919484;29;20043;-54
2021/10/29 06:28:20;;;;;;;4.03;2.60;;;;;;;8.43;68.39;100314.75;4920742;29;20051;-57
2021/10/29 06:30:47;;;;;;;13.40;3.38;;;;;;;8.56;68.42;100326.66;4951106;29;20047;-56
2021/10/29 06:33:16;;;;;;;4.47;2.58;;;;;;;8.63;67.89;100325.69;4949083;29;20035;-54
2021/10/29 06:35:42;;;;;;;9.40;3.15;;;;;;;8.58;68.21;100318.88;4952573;29;20042;-53
2021/10/29 06:38:10;;;;;;;4.45;2.78;;;;;;;8.68;67.71;100339.44;4950331;29;20047;-55
2021/10/29 06:40:42;;;;;;;3.83;2.55;;;;;;;8.56;68.32;100312.84;4917427;29;20401;-57
2021/10/29 06:43:13;;;;;;;2.22;1.42;;;;;;;8.53;68.00;100334.47;4928243;29;20178;-55
2021/10/29 07:42:42;;;;;;;4.65;2.60;;;;;;;9.07;70.13;100292.94;4933588;29;20070;-55
2021/10/29 07:45:09;;;;;;;4.82;2.40;;;;;;;9.07;70.19;100277.38;4924835;29;20058;-53
2021/10/29 07:47:36;;;;;;;4.65;2.83;;;;;;;9.04;70.33;100277.44;4937152;29;20471;-57
2021/10/29 07:50:04;;;;;;;4.80;2.47;;;;;;;9.13;70.05;100287.63;4933983;29;20040;-56
2021/10/29 07:52:30;;;;;;;3.22;1.80;;;;;;;9.06;70.24;100289.50;4946228;29;20043;-56
2021/10/29 07:54:56;;;;;;;3.50;1.85;;;;;;;9.11;69.30;100297.19;4925100;29;20373;-54
2021/10/29 07:57:22;;;;;;;3.85;2.63;;;;;;;9.03;69.74;100284.38;4947887;29;20143;-56
2021/10/29 07:59:55;;;;;;;7.72;2.40;;;;;;;9.11;70.20;100284.22;4950250;29;20051;-57
2021/10/29 08:02:25;;;;;;;4.78;2.13;;;;;;;9.08;69.52;100279.94;4939212;29;20090;-55
2021/10/29 08:04:52;;;;;;;4.38;2.60;;;;;;;9.03;70.10;100273.13;4950922;29;20042;-52
2021/10/29 08:07:18;;;;;;;6.22;2.88;;;;;;;9.02;70.40;100268.81;4936932;29;20055;-56
2021/10/29 08:09:45;;;;;;;4.55;2.25;;;;;;;9.10;70.44;100269.56;4943686;29;20427;-56
2021/10/29 08:12:12;;;;;;;6.45;2.58;;;;;;;9.12;70.36;100276.41;4935530;29;20090;-54
2021/10/29 08:14:38;;;;;;;3.42;2.10;;;;;;;9.09;70.71;100273.03;4927826;28;20047;-55
2021/10/29 08:17:04;;;;;;;5.22;2.40;;;;;;;9.04;70.84;100278.31;4949812;29;20143;-52
2021/10/29 08:19:32;;;;;;;3.35;2.65;;;;;;;9.10;70.48;100272.16;4949737;29;20468;-58
2021/10/29 08:22:02;;;;;;;2.58;1.42;;;;;;;9.15;70.74;100278.97;4949039;29;20563;-55
2021/10/29 08:24:28;;;;;;;6.40;2.58;;;;;;;9.05;70.99;100255.81;4952731;28;20059;-56
2021/10/29 08:26:55;;;;;;;4.28;2.72;;;;;;;9.19;70.75;100266.78;4935954;29;20563;-55
2021/10/29 08:29:23;;;;;;;4.22;2.55;;;;;;;9.30;70.63;100270.03;4934964;29;20050;-55
2021/10/29 08:31:50;;;;;;;15.70;2.60;;;;;;;9.30;70.34;100260.50;4951596;29;20057;-52
2021/10/29 08:34:18;;;;;;;3.60;1.70;;;;;;;9.19;71.59;100254.66;4952466;29;20043;-53
2021/10/29 08:36:45;;;;;;;4.00;2.65;;;;;;;9.19;72.19;100246.03;4948720;29;20118;-51
2021/10/29 08:39:13;;;;;;;8.95;2.97;;;;;;;9.29;72.00;100256.19;4947725;29;20537;-48
2021/10/29 08:41:40;;;;;;;5.50;2.40;;;;;;;9.22;72.60;100254.59;4950189;29;20129;-55
2021/10/29 08:44:06;;;;;;;6.82;2.83;;;;;;;9.23;73.40;100258.03;4929612;29;20046;-55
2021/10/29 08:46:33;;;;;;;4.43;2.33;;;;;;;9.37;73.11;100260.38;4931794;29;20043;-53
2021/10/29 08:48:59;;;;;;;4.20;2.88;;;;;;;9.44;72.74;100256.75;4930214;29;20138;-52
2021/10/29 08:51:26;;;;;;;5.10;2.90;;;;;;;9.42;72.93;100254.19;4949847;29;20467;-54
2021/10/29 08:53:55;;;;;;;3.88;2.05;;;;;;;9.49;73.66;100255.78;4928366;29;20086;-52
2021/10/29 08:56:22;;;;;;;5.40;2.40;;;;;;;9.44;74.56;100252.41;4950610;29;20043;-54
2021/10/29 08:59:19;;;;;;;9.43;2.85;;;;;;;9.47;75.38;100246.31;4951264;29;20051;-54
2021/10/29 09:01:51;;;;;;;3.55;2.15;;;;;;;9.37;75.70;100231.84;4948473;29;20039;-54
2021/10/29 09:04:22;;;;;;;5.47;3.20;;;;;;;9.19;76.49;100238.25;4940001;28;20106;-52
2021/10/29 09:31:34;;;;;;;8.32;3.47;;;;;;;8.98;82.01;100249.88;4941505;28;20094;-54
2021/10/29 09:34:04;;;;;;;5.70;3.20;;;;;;;8.93;83.68;100249.97;4924042;29;20854;-51
2021/10/29 09:36:43;;;;;;;5.95;3.55;;;;;;;8.91;84.10;100245.69;4943227;29;20441;-51
2021/10/29 09:39:14;;;;;;;5.18;3.28;;;;;;;9.01;84.20;100248.97;4941306;29;20043;-52
2021/10/29 09:42:08;;;;;;;8.60;3.92;;;;;;;9.11;83.54;100243.56;4912057;29;20675;-51
2021/10/29 09:44:53;;;;;;;6.85;3.10;;;;;;;9.14;83.22;100243.53;4932006;29;20043;-53
2021/10/29 09:47:22;;;;;;;5.60;2.95;;;;;;;9.19;83.41;100240.84;4940840;29;20046;-51
2021/10/29 09:54:58;;;;;;;6.35;2.90;;;;;;;9.27;81.55;100213.84;4947947;29;20035;-54
2021/10/29 09:57:25;;;;;;;5.15;2.78;;;;;;;9.46;80.65;100223.84;4943638;29;21587;-55
2021/10/29 09:59:52;;;;;;;3.63;2.60;;;;;;;9.53;79.86;100233.19;4945998;29;20048;-52
2021/10/29 10:02:28;;;;;;;6.03;2.65;;;;;;;9.51;79.11;100228.06;4915835;29;20039;-57
2021/10/29 10:04:59;;;;;;;8.38;2.67;;;;;;;9.56;78.81;100231.41;4927484;29;20047;-53
2021/10/29 10:07:33;;;;;;;3.80;2.10;;;;;;;9.60;78.78;100227.84;4931796;29;20037;-52
2021/10/29 10:10:00;;;;;;;7.13;2.63;;;;;;;9.75;78.52;100252.63;4916021;29;20047;-51
2021/10/29 10:12:33;;;;;;;7.45;1.88;;;;;;;9.70;77.35;100231.09;4931830;29;20057;-51
2021/10/29 10:15:00;;;;;;;5.47;2.13;;;;;;;9.73;77.59;100221.50;4930644;29;20046;-53
2021/10/29 10:17:27;;;;;;;10.23;2.22;;;;;;;9.70;76.49;100224.16;4931747;29;20047;-53
2021/10/29 10:19:55;;;;;;;6.18;2.15;;;;;;;9.56;76.95;100220.16;4931843;29;20049;-54
2021/10/29 10:22:24;;;;;;;7.27;2.70;;;;;;;9.71;77.17;100223.28;4931531;29;20082;-54
2021/10/29 10:25:03;;;;;;;4.38;1.92;;;;;;;9.75;76.66;100235.31;4932258;29;20533;-52
2021/10/29 10:28:07;;;;;;;3.88;1.95;;;;;;;9.73;77.22;100231.88;4933344;29;20055;-55
2021/10/29 10:47:06;;;;;;;7.00;2.60;;;;;;;9.84;77.61;100220.41;4952179;29;20359;-53
2021/10/29 10:49:46;;;;;;;4.10;2.00;;;;;;;9.85;77.23;100207.38;4929874;29;20046;-54
2021/10/29 10:55:19;;;;;;;4.15;2.08;;;;;;;10.02;76.96;100223.44;4950616;29;20428;-54
2021/10/29 11:00:43;;;;;;;5.20;2.00;;;;;;;10.05;76.42;100238.06;4929003;29;20058;-54
2021/10/29 11:04:09;;;;;;;;;;;;;;;10.02;77.10;100230.38;4932318;29;20046;-50
2021/10/29 11:11:01;;;;;;;5.55;1.55;;;;;;;10.05;77.45;100225.09;4944336;29;20061;-53
2021/10/29 11:13:42;;;;;;;3.58;1.83;;;;;;;10.06;76.95;100227.66;4945043;29;20098;-55
2021/10/29 11:16:10;;;;;;;4.28;2.13;;;;;;;10.13;76.84;100226.63;4940947;29;20514;-52
2021/10/29 11:18:38;;;;;;;8.30;1.70;;;;;;;10.15;77.03;100222.25;4945367;28;20077;-55
2021/10/29 11:21:25;;;;;;;2.33;1.48;;;;;;;10.17;76.98;100230.03;4942415;29;20094;-55
2021/10/29 11:23:58;;;;;;;5.18;2.78;;;;;;;10.26;76.79;100232.41;4941449;29;20040;-51
2021/10/29 11:26:28;;;;;;;2.10;1.70;;;;;;;10.24;76.71;100236.81;4927815;29;20116;-53
2021/10/29 11:28:56;;;;;;;5.18;1.38;;;;;;;10.23;76.64;100226.44;4923785;29;20226;-54
2021/10/29 11:31:29;;;;;;;7.05;2.55;;;;;;;10.20;76.67;100206.59;4943334;29;20136;-54
2021/10/29 11:33:58;;;;;;;7.20;2.40;;;;;;;10.34;76.52;100240.88;4943120;29;20593;-52
2021/10/29 11:36:37;;;;;;;4.80;2.08;;;;;;;10.32;77.27;100227.06;4935352;29;20090;-55
2021/10/29 11:39:06;;;;;;;2.30;1.30;;;;;;;10.35;77.09;100228.75;4943615;29;20901;-55
2021/10/29 11:41:34;;;;;;;4.25;1.70;;;;;;;10.37;77.37;100238.19;4948148;29;20082;-54
2021/10/29 11:44:05;;;;;;;4.63;2.40;;;;;;;10.33;77.32;100238.31;4943627;29;20043;-53
2021/10/29 11:46:32;;;;;;;4.97;1.98;;;;;;;10.28;78.62;100228.03;4945053;29;20043;-54
2021/10/29 11:49:01;;;;;;;5.32;1.80;;;;;;;10.27;78.88;100230.66;4948065;29;20051;-54
2021/10/29 11:51:28;;;;;;;6.00;1.65;;;;;;;10.40;78.25;100234.69;4947605;28;20483;-55
2021/10/29 11:56:43;;;;;;;5.15;1.80;;;;;;;10.26;80.08;100228.97;4946941;29;20063;-55
2021/10/29 11:59:28;;;;;;;4.90;1.42;;;;;;;10.28;80.61;100237.56;4932372;29;20050;-55
2021/10/29 12:02:01;;;;;;;5.25;1.73;;;;;;;10.19;82.28;100226.53;4928365;29;20043;-54
2021/10/29 12:07:26;;;;;;;6.18;2.25;;;;;;;10.20;83.10;100229.97;4939351;29;20035;-54
2021/10/29 12:10:02;;;;;;;4.85;1.60;;;;;;;10.28;83.46;100234.97;4951334;29;20043;-55
2021/10/29 12:12:30;;;;;;;7.28;2.08;;;;;;;10.25;83.72;100232.47;4951500;29;20055;-57
2021/10/29 12:15:08;;;;;;;4.03;1.40;;;;;;;10.18;84.30;100223.97;4901424;28;20050;-59
2021/10/29 12:17:44;;;;;;;4.30;1.52;;;;;;;10.22;84.95;100240.31;4910568;29;20043;-55
2021/10/29 12:20:23;;;;;;;10.95;2.17;;;;;;;10.13;85.62;100230.97;4943377;29;20408;-52
2021/10/29 12:22:54;;;;;;;19.95;7.07;;;;;;;10.31;85.16;100237.53;4942739;29;20554;-52
2021/10/29 12:25:55;;;;;;;7.15;1.63;;;;;;;10.19;85.47;100212.69;4942974;29;20043;-51
2021/10/29 12:28:35;;;;;;;3.08;1.60;;;;;;;10.28;85.91;100217.66;4921053;29;20039;-52
2021/10/29 12:31:17;;;;;;;8.40;1.50;;;;;;;10.30;85.79;100222.81;4930454;29;20062;-54
2021/10/29 12:34:10;;;;;;;3.35;1.42;;;;;;;10.27;87.02;100218.53;4944047;29;20043;-52
2021/10/29 12:37:02;;;;;;;5.47;1.60;;;;;;;10.23;86.63;100219.50;4947470;29;20066;-53
2021/10/29 13:04:12;;;;;;;7.28;2.30;;;;;;;10.16;91.90;100218.78;4943614;29;20542;-54
2021/10/29 13:06:46;;;;;;;7.47;2.63;;;;;;;10.16;92.07;100208.41;4947804;29;20780;-53
2021/10/29 13:09:23;;;;;;;6.93;2.33;;;;;;;10.13;93.17;100202.41;4927715;29;20598;-50
2021/10/29 13:11:55;;;;;;;7.75;2.55;;;;;;;10.07;93.44;100189.53;4950979;29;20471;-54
2021/10/29 13:14:48;;;;;;;6.60;2.45;;;;;;;10.03;94.48;100185.31;4943778;29;20615;-53
2021/10/29 13:17:15;;;;;;;6.90;2.58;;;;;;;9.88;95.64;100170.13;4938437;29;20130;-55
2021/10/29 13:25:11;;;;;;;5.97;2.45;;;;;;;9.94;96.69;100189.00;4931815;29;20043;-53
2021/10/29 13:35:47;;;;;;;6.13;2.38;;;;;;;10.08;96.74;100178.28;4943057;29;20047;-55
2021/10/29 13:54:24;;;;;;;5.65;3.00;;;;;;;10.02;99.93;100188.81;4927499;29;20035;-51
2021/10/29 13:59:46;;;;;;;5.50;3.10;;;;;;;10.07;100.00;100198.19;4947394;28;20043;-56
2021/10/29 14:02:34;;;;;;;7.20;2.53;;;;;;;10.04;99.42;100195.69;4932978;28;20224;-53
2021/10/29 14:32:18;;;;;;;8.00;3.72;;;;;;;10.36;97.90;100233.91;4939209;29;20050;-52
2021/10/29 14:34:50;;;;;;;5.90;3.50;;;;;;;10.25;98.52;100222.94;4951614;29;20512;-56
2021/10/29 14:42:35;;;;;;;5.97;2.80;;;;;;;10.34;98.43;100233.09;4938725;29;20427;-53
2021/10/29 14:45:10;;;;;;;7.30;3.38;;;;;;;10.36;98.20;100214.88;4952979;29;20032;-54
2021/10/29 15:30:03;;;;;;;7.18;4.38;;;;;;;10.25;97.55;100209.09;4943455;29;20046;-53
2021/10/29 15:33:35;;;;;;;5.70;3.65;;;;;;;10.26;96.71;100206.41;4949263;29;20106;-50
2021/10/29 15:41:12;;;;;;;12.13;5.10;;;;;;;10.31;96.57;100229.72;4943519;29;20064;-50
2021/10/29 15:46:33;;;;;;;8.15;5.50;;;;;;;10.34;95.70;100216.63;4951076;29;20561;-50
2021/10/29 15:51:51;;;;;;;8.75;4.78;;;;;;;10.27;95.84;100209.88;4914894;29;20095;-50
2021/10/29 15:54:17;;;;;;;7.78;4.75;;;;;;;10.27;95.53;100202.06;4933274;29;20535;-52
2021/10/29 15:56:52;;;;;;;8.63;4.75;;;;;;;10.35;95.37;100210.56;4950072;28;20066;-49
2021/10/29 15:59:35;;;;;;;7.35;4.53;;;;;;;10.37;95.58;100213.94;4936191;29;20043;-57
2021/10/29 16:18:18;;;;;;;12.65;5.82;;;;;;;10.31;95.86;100199.34;4950555;29;20554;-54
2021/10/29 16:20:44;;;;;;;8.50;5.32;;;;;;;10.31;95.52;100206.34;4951705;29;20047;-58